createdAt,value
2022-08-09T00:00:28.662Z,33.15
2022-08-09T00:03:00.373Z,33.13
2022-08-09T00:06:19.203Z,33.09
2022-08-09T00:08:32.006Z,33.05
2022-08-09T00:11:06.046Z,33.05
2022-08-09T00:13:56.091Z,33.03
2022-08-09T00:16:36.500Z,33.05
2022-08-09T00:19:10.518Z,33.03
2022-08-09T00:21:55.437Z,33.02
2022-08-09T00:24:28.186Z,33.00
2022-08-09T00:26:59.830Z,32.99
2022-08-09T00:29:39.476Z,32.99
2022-08-09T00:32:35.767Z,32.97
2022-08-09T00:35:09.641Z,32.95
2022-08-09T00:37:41.577Z,32.93
2022-08-09T00:40:17.360Z,32.91
2022-08-09T00:44:11.352Z,32.90
2022-08-09T00:45:50.579Z,32.88
2022-08-09T00:48:27.324Z,32.86
2022-08-09T00:51:00.047Z,32.86
2022-08-09T00:53:31.486Z,32.86
2022-08-09T00:56:09.877Z,32.84
2022-08-09T00:58:41.730Z,32.82
2022-08-09T01:01:32.487Z,32.80
2022-08-09T01:04:31.980Z,32.78
2022-08-09T01:07:17.416Z,32.75
2022-08-09T01:09:59.376Z,32.74
2022-08-09T01:12:41.169Z,32.71
2022-08-09T01:15:18.656Z,32.70
2022-08-09T01:18:00.717Z,32.70
2022-08-09T01:20:51.975Z,32.68
2022-08-09T01:24:03.329Z,32.66
2022-08-09T01:26:59.332Z,32.63
2022-08-09T01:29:55.730Z,32.62
2022-08-09T01:32:35.148Z,32.60
2022-08-09T01:35:37.943Z,32.60
2022-08-09T01:38:15.913Z,32.58
2022-08-09T01:41:03.119Z,32.57
2022-08-09T01:43:51.993Z,32.55
2022-08-09T01:46:27.522Z,32.54
2022-08-09T01:49:10.783Z,32.53
2022-08-09T01:51:53.005Z,32.53
2022-08-09T01:54:32.820Z,32.50
2022-08-09T01:57:11.060Z,32.49
2022-08-09T01:59:53.133Z,32.48
2022-08-09T02:02:35.712Z,32.48
2022-08-09T02:05:15.926Z,32.49
2022-08-09T02:08:40.657Z,32.48
2022-08-09T02:10:51.942Z,32.47
2022-08-09T02:13:40.240Z,32.49
2022-08-09T02:16:16.585Z,32.47
2022-08-09T02:18:47.824Z,32.48
2022-08-09T02:21:24.552Z,32.49
2022-08-09T02:24:03.306Z,32.47
2022-08-09T02:26:39.827Z,32.48
2022-08-09T02:29:26.183Z,32.48
2022-08-09T02:32:06.912Z,32.48
2022-08-09T02:34:51.942Z,32.45
2022-08-09T02:37:36.587Z,32.42
2022-08-09T02:40:15.503Z,32.39
2022-08-09T02:42:59.879Z,32.37
2022-08-09T02:45:36.015Z,32.36
2022-08-09T02:48:30.518Z,32.35
2022-08-09T02:51:04.714Z,32.32
2022-08-09T02:53:43.161Z,32.33
2022-08-09T02:56:33.347Z,32.32
2022-08-09T02:59:08.785Z,32.34
2022-08-09T03:02:06.240Z,32.35
2022-08-09T03:04:39.237Z,32.34
2022-08-09T03:07:14.387Z,32.35
2022-08-09T03:09:53.926Z,32.36
2022-08-09T03:12:30.869Z,32.36
2022-08-09T03:15:02.974Z,32.34
2022-08-09T03:17:42.113Z,32.35
2022-08-09T03:20:18.483Z,32.37
2022-08-09T03:22:58.405Z,32.36
2022-08-09T03:26:03.437Z,32.35
2022-08-09T03:28:38.179Z,32.35
2022-08-09T03:31:21.261Z,32.35
2022-08-09T03:33:56.564Z,32.36
2022-08-09T03:36:31.665Z,32.37
2022-08-09T03:39:05.595Z,32.37
2022-08-09T03:41:45.943Z,32.37
2022-08-09T03:44:19.728Z,32.38
2022-08-09T03:46:58.516Z,32.38
2022-08-09T03:49:35.747Z,32.40
2022-08-09T03:52:11.428Z,32.40
2022-08-09T03:54:44.146Z,32.41
2022-08-09T03:57:20.486Z,32.43
2022-08-09T04:00:00.491Z,32.43
2022-08-09T04:02:35.077Z,32.44
2022-08-09T04:05:17.120Z,32.45
2022-08-09T04:08:00.516Z,32.46
2022-08-09T04:10:33.140Z,32.47
2022-08-09T04:13:11.621Z,32.49
2022-08-09T04:16:19.758Z,32.50
2022-08-09T04:18:36.163Z,32.50
2022-08-09T04:21:07.435Z,32.54
2022-08-09T04:23:41.491Z,32.56
2022-08-09T04:26:25.226Z,32.56
2022-08-09T04:29:14.711Z,32.56
2022-08-09T04:31:47.700Z,32.59
2022-08-09T04:34:30.578Z,32.61
2022-08-09T04:37:03.497Z,32.62
2022-08-09T04:39:40.506Z,32.66
2022-08-09T04:42:12.192Z,32.67
2022-08-09T04:44:49.048Z,32.70
2022-08-09T04:47:20.749Z,32.74
2022-08-09T04:49:55.575Z,32.77
2022-08-09T04:52:29.833Z,32.78
2022-08-09T04:55:09.371Z,32.82
2022-08-09T04:57:54.229Z,32.83
2022-08-09T05:00:31.838Z,32.86
2022-08-09T05:03:30.025Z,32.89
2022-08-09T05:06:06.703Z,32.91
2022-08-09T05:08:38.109Z,32.96
2022-08-09T05:11:10.973Z,33.00
2022-08-09T05:13:43.315Z,33.03
2022-08-09T05:16:14.977Z,33.07
2022-08-09T05:18:58.813Z,33.11
2022-08-09T05:21:36.447Z,33.13
2022-08-09T05:24:17.927Z,33.17
2022-08-09T05:26:51.115Z,33.22
2022-08-09T05:29:24.092Z,33.26
2022-08-09T05:32:00.700Z,33.28
2022-08-09T05:34:32.920Z,33.34
2022-08-09T05:37:07.388Z,33.37
2022-08-09T05:39:44.617Z,33.41
2022-08-09T05:42:21.494Z,33.45
2022-08-09T05:44:54.996Z,33.51
2022-08-09T05:47:30.311Z,33.58
2022-08-09T05:50:25.157Z,33.63
2022-08-09T05:52:55.669Z,33.68
2022-08-09T05:55:27.677Z,33.72
2022-08-09T05:58:04.187Z,33.76
2022-08-09T06:00:38.307Z,33.83
2022-08-09T06:03:10.707Z,33.89
2022-08-09T06:05:57.564Z,33.92
2022-08-09T06:08:34.076Z,33.95
2022-08-09T06:11:16.318Z,34.00
2022-08-09T06:13:50.001Z,34.03
2022-08-09T06:16:23.986Z,34.06
2022-08-09T06:18:54.646Z,34.09
2022-08-09T06:21:25.151Z,34.15
2022-08-09T06:24:01.232Z,34.20
2022-08-09T06:26:34.851Z,34.25
2022-08-09T06:29:08.858Z,34.34
2022-08-09T06:32:17.312Z,34.38
2022-08-09T06:34:36.933Z,34.40
2022-08-09T06:37:10.039Z,34.43
2022-08-09T06:39:57.323Z,34.46
2022-08-09T06:42:33.686Z,34.52
2022-08-09T06:46:07.214Z,34.59
2022-08-09T06:48:09.659Z,34.66
2022-08-09T06:50:47.525Z,34.73
2022-08-09T06:53:18.498Z,34.80
2022-08-09T06:55:50.633Z,34.87
2022-08-09T06:58:40.635Z,34.92
2022-08-09T07:01:13.812Z,34.98
2022-08-09T07:03:52.538Z,35.05
2022-08-09T07:06:27.924Z,35.14
2022-08-09T07:09:00.600Z,35.21
2022-08-09T07:11:45.654Z,35.26
2022-08-09T07:14:26.369Z,35.33
2022-08-09T07:17:00.367Z,35.39
2022-08-09T07:19:31.864Z,35.44
2022-08-09T07:22:03.343Z,35.48
2022-08-09T07:24:40.139Z,35.54
2022-08-09T07:27:26.695Z,35.58
2022-08-09T07:30:06.991Z,35.60
2022-08-09T07:32:40.170Z,35.64
2022-08-09T07:35:14.746Z,35.62
2022-08-09T07:37:49.306Z,35.63
2022-08-09T07:40:26.776Z,35.67
2022-08-09T07:43:01.234Z,35.72
2022-08-09T07:45:39.572Z,35.77
2022-08-09T07:48:29.591Z,35.84
2022-08-09T07:52:02.596Z,35.87
2022-08-09T07:54:05.646Z,35.92
2022-08-09T07:56:44.983Z,35.98
2022-08-09T07:59:34.531Z,36.02
2022-08-09T08:02:19.112Z,36.06
2022-08-09T08:04:53.490Z,36.10
2022-08-09T08:08:42.424Z,36.13
2022-08-09T08:10:18.250Z,36.14
2022-08-09T08:12:49.826Z,36.16
2022-08-09T08:15:24.489Z,36.19
2022-08-09T08:17:58.677Z,36.23
2022-08-09T08:20:33.498Z,36.27
2022-08-09T08:23:15.984Z,36.30
2022-08-09T08:25:50.358Z,36.34
2022-08-09T08:28:52.367Z,36.37
2022-08-09T08:31:24.583Z,36.42
2022-08-09T08:34:17.213Z,36.46
2022-08-09T08:36:54.331Z,36.49
2022-08-09T08:39:26.585Z,36.53
2022-08-09T08:41:58.953Z,36.57
2022-08-09T08:44:37.451Z,36.62
2022-08-09T08:47:12.400Z,36.64
2022-08-09T08:49:48.103Z,36.63
2022-08-09T08:52:57.510Z,36.60
2022-08-09T08:55:19.152Z,36.60
2022-08-09T08:57:58.211Z,36.63
2022-08-09T09:00:34.702Z,36.67
2022-08-09T09:03:16.485Z,36.70
2022-08-09T09:06:04.629Z,36.72
2022-08-09T09:08:42.665Z,36.73
2022-08-09T09:11:17.888Z,36.75
2022-08-09T09:13:58.311Z,36.76
2022-08-09T09:16:35.734Z,36.76
2022-08-09T09:19:37.275Z,36.77
2022-08-09T09:22:11.473Z,36.79
2022-08-09T09:24:47.630Z,36.81
2022-08-09T09:28:05.766Z,36.84
2022-08-09T09:30:38.183Z,36.87
2022-08-09T09:33:15.863Z,36.89
2022-08-09T09:36:01.564Z,36.92
2022-08-09T09:38:49.399Z,36.93
2022-08-09T09:41:49.698Z,36.93
2022-08-09T09:44:31.591Z,36.93
2022-08-09T09:47:10.330Z,36.94
2022-08-09T09:50:06.827Z,36.94
2022-08-09T09:52:37.214Z,36.93
2022-08-09T09:55:24.077Z,36.94
2022-08-09T09:58:18.155Z,36.91
2022-08-09T10:00:55.705Z,36.89
2022-08-09T10:03:57.004Z,36.87
2022-08-09T10:06:32.661Z,36.86
2022-08-09T10:09:11.742Z,36.86
2022-08-09T10:12:14.931Z,36.82
2022-08-09T10:14:56.227Z,36.79
2022-08-09T10:17:50.802Z,36.78
2022-08-09T10:20:33.090Z,36.78
2022-08-09T10:23:21.095Z,36.78
2022-08-09T10:26:08.021Z,36.77
2022-08-09T10:28:48.748Z,36.77
2022-08-09T10:32:37.649Z,36.77
2022-08-09T10:34:32.503Z,36.75
2022-08-09T10:37:09.594Z,36.76
2022-08-09T10:39:49.133Z,36.76
2022-08-09T10:42:21.459Z,36.76
2022-08-09T10:45:04.245Z,36.78
2022-08-09T10:48:19.301Z,36.76
2022-08-09T10:51:13.667Z,36.74
2022-08-09T10:54:04.780Z,36.71
2022-08-09T10:56:37.824Z,36.72
2022-08-09T10:59:55.498Z,36.74
2022-08-09T11:03:15.058Z,36.73
2022-08-09T11:05:34.434Z,36.74
2022-08-09T11:08:47.548Z,36.76
2022-08-09T11:11:19.100Z,36.71
2022-08-09T11:14:10.563Z,36.69
2022-08-09T11:16:47.142Z,36.66
2022-08-09T11:20:11.463Z,36.65
2022-08-09T11:23:07.077Z,36.65
2022-08-09T11:26:00.466Z,36.63
2022-08-09T11:28:55.990Z,36.59
2022-08-09T11:31:52.796Z,36.56
2022-08-09T11:34:39.074Z,36.57
2022-08-09T11:37:18.060Z,36.58
2022-08-09T11:40:06.863Z,36.59
2022-08-09T11:42:48.504Z,36.59
2022-08-09T11:45:42.527Z,36.58
2022-08-09T11:48:27.051Z,36.54
2022-08-09T11:52:54.067Z,36.51
2022-08-09T11:54:27.668Z,36.49
2022-08-09T11:57:47.621Z,36.49
2022-08-09T12:00:33.898Z,36.50
2022-08-09T12:03:09.746Z,36.52
2022-08-09T12:06:01.317Z,36.51
2022-08-09T12:08:33.513Z,36.51
2022-08-09T12:11:12.791Z,36.53
2022-08-09T12:14:08.117Z,36.53
2022-08-09T12:16:42.917Z,36.53
2022-08-09T12:19:15.470Z,36.54
2022-08-09T12:21:51.873Z,36.53
2022-08-09T12:24:28.087Z,36.53
2022-08-09T12:28:58.818Z,36.48
2022-08-09T12:30:31.562Z,36.45
2022-08-09T12:33:04.175Z,36.38
2022-08-09T12:35:40.156Z,36.32
2022-08-09T12:38:29.761Z,36.28
2022-08-09T12:41:11.599Z,36.27
2022-08-09T12:44:05.283Z,36.27
2022-08-09T12:46:36.211Z,36.27
2022-08-09T12:49:09.223Z,36.24
2022-08-09T12:51:59.932Z,36.20
2022-08-09T12:56:12.786Z,36.15
2022-08-09T12:57:48.939Z,36.07
2022-08-09T13:00:25.177Z,36.02
2022-08-09T13:02:59.822Z,36.01
2022-08-09T13:05:51.633Z,36.01
2022-08-09T13:08:40.750Z,35.96
2022-08-09T13:11:13.204Z,35.96
2022-08-09T13:14:40.939Z,35.98
2022-08-09T13:16:53.558Z,35.99
2022-08-09T13:20:10.184Z,35.95
2022-08-09T13:22:36.844Z,35.91
2022-08-09T13:25:16.892Z,35.86
2022-08-09T13:27:55.840Z,35.84
2022-08-09T13:30:49.269Z,35.85
2022-08-09T13:33:53.086Z,35.83
2022-08-09T13:36:39.758Z,35.82
2022-08-09T13:41:19.296Z,35.82
2022-08-09T13:42:05.469Z,35.79
2022-08-09T13:44:44.818Z,35.77
2022-08-09T13:47:31.272Z,35.74
2022-08-09T13:50:17.854Z,35.70
2022-08-09T13:52:50.412Z,35.70
2022-08-09T13:55:22.330Z,35.68
2022-08-09T13:57:58.154Z,35.67
2022-08-09T14:00:32.146Z,35.65
2022-08-09T14:04:01.907Z,35.63
2022-08-09T14:06:02.789Z,35.61
2022-08-09T14:08:34.363Z,35.62
2022-08-09T14:11:16.012Z,35.63
2022-08-09T14:14:22.319Z,35.61
2022-08-09T14:16:38.420Z,35.57
2022-08-09T14:19:13.049Z,35.55
2022-08-09T14:21:45.285Z,35.53
2022-08-09T14:24:22.213Z,35.50
2022-08-09T14:27:04.045Z,35.47
2022-08-09T14:30:35.888Z,35.42
2022-08-09T14:32:43.985Z,35.38
2022-08-09T14:35:16.330Z,35.34
2022-08-09T14:38:02.386Z,35.31
2022-08-09T14:41:00.787Z,35.27
2022-08-09T14:43:26.899Z,35.22
2022-08-09T14:46:54.495Z,35.16
2022-08-09T14:49:10.613Z,35.12
2022-08-09T14:51:43.278Z,35.13
2022-08-09T14:54:15.054Z,35.08
2022-08-09T14:56:58.148Z,35.06
2022-08-09T14:59:29.502Z,35.03
2022-08-09T15:02:01.571Z,35.01
2022-08-09T15:04:33.464Z,35.00
2022-08-09T15:07:06.027Z,34.99
2022-08-09T15:10:10.339Z,34.95
2022-08-09T15:12:32.748Z,34.92
2022-08-09T15:15:03.959Z,34.90
2022-08-09T15:17:42.212Z,34.87
2022-08-09T15:21:56.202Z,34.82
2022-08-09T15:24:00.954Z,34.80
2022-08-09T15:26:01.932Z,34.76
2022-08-09T15:28:35.933Z,34.73
2022-08-09T15:31:18.492Z,34.73
2022-08-09T15:34:27.517Z,34.74
2022-08-09T15:36:40.568Z,34.73
2022-08-09T15:39:21.335Z,34.70
2022-08-09T15:41:53.748Z,34.68
2022-08-09T15:44:25.049Z,34.68
2022-08-09T15:46:56.383Z,34.66
2022-08-09T15:49:28.439Z,34.65
2022-08-09T15:52:04.758Z,34.62
2022-08-09T15:54:46.204Z,34.58
2022-08-09T15:57:33.838Z,34.55
2022-08-09T16:00:14.158Z,34.52
2022-08-09T16:02:53.565Z,34.53
2022-08-09T16:05:47.684Z,34.53
2022-08-09T16:08:30.996Z,34.51
2022-08-09T16:11:05.332Z,34.53
2022-08-09T16:14:03.760Z,34.52
2022-08-09T16:16:32.121Z,34.50
2022-08-09T16:19:03.205Z,34.47
2022-08-09T16:21:35.198Z,34.45
2022-08-09T16:24:08.874Z,34.42
2022-08-09T16:27:02.159Z,34.39
2022-08-09T16:29:36.628Z,34.39
2022-08-09T16:32:18.041Z,34.38
2022-08-09T16:35:02.476Z,34.37
2022-08-09T16:37:56.164Z,34.37
2022-08-09T16:40:40.012Z,34.36
2022-08-09T16:43:14.392Z,34.31
2022-08-09T16:45:45.921Z,34.29
2022-08-09T16:48:39.302Z,34.29
2022-08-09T16:51:14.185Z,34.28
2022-08-09T16:54:16.446Z,34.28
2022-08-09T16:56:49.316Z,34.27
2022-08-09T16:59:22.403Z,34.25
2022-08-09T17:01:53.379Z,34.23
2022-08-09T17:04:28.202Z,34.22
2022-08-09T17:08:40.653Z,34.20
2022-08-09T17:09:52.169Z,34.18
2022-08-09T17:12:33.346Z,34.16
2022-08-09T17:15:30.748Z,34.15
2022-08-09T17:18:00.820Z,34.14
2022-08-09T17:20:36.976Z,34.11
2022-08-09T17:23:14.755Z,34.09
2022-08-09T17:25:53.019Z,34.09
2022-08-09T17:28:25.544Z,34.06
2022-08-09T17:31:01.105Z,34.04
2022-08-09T17:33:35.771Z,34.03
2022-08-09T17:36:09.241Z,34.02
2022-08-09T17:38:57.525Z,34.01
2022-08-09T17:41:38.931Z,33.98
2022-08-09T17:44:41.677Z,33.96
2022-08-09T17:47:10.625Z,33.94
2022-08-09T17:49:50.977Z,33.93
2022-08-09T17:52:27.305Z,33.92
2022-08-09T17:54:58.294Z,33.90
2022-08-09T17:58:02.464Z,33.90
2022-08-09T18:00:33.557Z,33.89
2022-08-09T18:03:17.747Z,33.88
2022-08-09T18:05:52.881Z,33.88
2022-08-09T18:08:27.655Z,33.89
2022-08-09T18:11:01.737Z,33.92
2022-08-09T18:13:38.769Z,33.93
2022-08-09T18:16:29.095Z,33.92
2022-08-09T18:21:00.148Z,33.92
2022-08-09T18:21:54.669Z,33.91
2022-08-09T18:24:27.563Z,33.91
2022-08-09T18:27:01.254Z,33.90
2022-08-09T18:30:34.828Z,33.90
2022-08-09T18:32:24.656Z,33.89
2022-08-09T18:34:59.623Z,33.89
2022-08-09T18:37:47.206Z,33.88
2022-08-09T18:40:19.397Z,33.89
2022-08-09T18:42:58.108Z,33.88
2022-08-09T18:46:49.264Z,33.87
2022-08-09T18:48:21.547Z,33.86
2022-08-09T18:51:05.220Z,33.86
2022-08-09T18:53:56.587Z,33.84
2022-08-09T18:56:29.238Z,33.85
2022-08-09T18:59:01.020Z,33.84
2022-08-09T19:01:43.483Z,33.82
2022-08-09T19:04:17.892Z,33.80
2022-08-09T19:07:07.944Z,33.80
2022-08-09T19:10:15.778Z,33.79
2022-08-09T19:12:33.802Z,33.75
2022-08-09T19:15:09.951Z,33.74
2022-08-09T19:17:56.569Z,33.74
2022-08-09T19:20:34.465Z,33.72
2022-08-09T19:23:16.861Z,33.71
2022-08-09T19:26:07.354Z,33.70
2022-08-09T19:28:42.702Z,33.68
2022-08-09T19:31:20.039Z,33.68
2022-08-09T19:33:52.821Z,33.69
2022-08-09T19:36:23.939Z,33.67
2022-08-09T19:39:05.754Z,33.68
2022-08-09T19:41:37.425Z,33.67
2022-08-09T19:44:13.276Z,33.68
2022-08-09T19:46:50.648Z,33.67
2022-08-09T19:50:06.717Z,33.68
2022-08-09T19:52:16.261Z,33.67
2022-08-09T19:54:51.911Z,33.69
2022-08-09T19:57:25.820Z,33.69
2022-08-09T20:00:02.392Z,33.69
2022-08-09T20:04:07.357Z,33.70
2022-08-09T20:05:29.114Z,33.68
2022-08-09T20:08:33.338Z,33.66
2022-08-09T20:11:08.597Z,33.68
2022-08-09T20:13:40.044Z,33.67
2022-08-09T20:16:34.770Z,33.67
2022-08-09T20:19:48.517Z,33.66
2022-08-09T20:21:59.865Z,33.67
2022-08-09T20:24:34.456Z,33.69
2022-08-09T20:27:11.582Z,33.71
2022-08-09T20:29:45.865Z,33.70
2022-08-09T20:32:33.002Z,33.70
2022-08-09T20:35:05.810Z,33.68
2022-08-09T20:38:23.753Z,33.68
2022-08-09T20:40:29.317Z,33.67
2022-08-09T20:43:18.061Z,33.66
2022-08-09T20:45:59.070Z,33.64
2022-08-09T20:48:33.441Z,33.64
2022-08-09T20:51:05.352Z,33.64
2022-08-09T20:53:38.806Z,33.63
2022-08-09T20:56:21.302Z,33.64
2022-08-09T20:58:59.232Z,33.63
2022-08-09T21:01:35.507Z,33.61
2022-08-09T21:05:53.592Z,33.58
2022-08-09T21:07:15.979Z,33.58
2022-08-09T21:09:55.595Z,33.58
2022-08-09T21:15:34.334Z,33.57
2022-08-09T21:18:11.183Z,33.56
2022-08-09T21:20:56.113Z,33.53
2022-08-09T21:23:47.877Z,33.50
2022-08-09T21:26:18.255Z,33.48
2022-08-09T21:28:56.184Z,33.48
2022-08-09T21:31:48.519Z,33.48
2022-08-09T21:34:29.244Z,33.47
2022-08-09T21:37:00.607Z,33.49
2022-08-09T21:39:42.390Z,33.52
2022-08-09T21:42:14.309Z,33.50
2022-08-09T21:44:45.673Z,33.51
2022-08-09T21:47:19.296Z,33.52
2022-08-09T21:49:50.941Z,33.51
2022-08-09T21:52:24.498Z,33.49
2022-08-09T21:55:04.218Z,33.48
2022-08-09T21:57:58.829Z,33.45
2022-08-09T22:00:33.315Z,33.44
2022-08-09T22:03:19.102Z,33.44
2022-08-09T22:05:52.246Z,33.44
2022-08-09T22:08:24.729Z,33.46
2022-08-09T22:11:49.352Z,33.47
2022-08-09T22:13:48.701Z,33.48
2022-08-09T22:16:21.934Z,33.49
2022-08-09T22:18:57.030Z,33.50
2022-08-09T22:21:49.610Z,33.51
2022-08-09T22:24:24.854Z,33.50
2022-08-09T22:26:56.728Z,33.50
2022-08-09T22:29:38.340Z,33.51
2022-08-09T22:32:30.008Z,33.51
2022-08-09T22:35:06.576Z,33.51
2022-08-09T22:37:40.557Z,33.50
2022-08-09T22:40:19.982Z,33.51
2022-08-09T22:42:52.097Z,33.49
2022-08-09T22:48:18.806Z,33.48
2022-08-09T22:48:35.107Z,33.47
2022-08-09T22:51:10.818Z,33.45
2022-08-09T22:54:02.130Z,33.46
2022-08-09T22:56:34.583Z,33.46
2022-08-09T22:59:55.328Z,33.45
2022-08-09T23:01:58.215Z,33.46
2022-08-09T23:04:32.540Z,33.46
2022-08-09T23:07:31.084Z,33.45
2022-08-09T23:10:14.338Z,33.43
2022-08-09T23:12:45.366Z,33.44
2022-08-09T23:15:16.934Z,33.45
2022-08-09T23:17:48.260Z,33.46
2022-08-09T23:20:19.813Z,33.48
2022-08-09T23:22:53.222Z,33.48
2022-08-09T23:25:24.207Z,33.47
2022-08-09T23:28:14.453Z,33.46
2022-08-09T23:30:51.839Z,33.46
2022-08-09T23:33:23.571Z,33.45
2022-08-09T23:36:05.408Z,33.46
2022-08-09T23:38:48.997Z,33.43
2022-08-09T23:41:27.434Z,33.41
2022-08-09T23:44:02.495Z,33.42
2022-08-09T23:46:34.615Z,33.40
2022-08-09T23:49:06.440Z,33.39
2022-08-09T23:51:40.370Z,33.39
2022-08-09T23:54:13.979Z,33.40
2022-08-09T23:56:53.724Z,33.39
2022-08-09T23:59:47.041Z,33.40
